sensor_id;sensor_type;location;lat;lon;timestamp;P1;durP1;ratioP1;P2;durP2;ratioP2
50821;SDS011;36794;51.212;6.980;2023-05-15T00:00:50;7.90;;;3.80;;
50821;SDS011;36794;51.212;6.980;2023-05-15T00:03:16;6.90;;;4.00;;
50821;SDS011;36794;51.212;6.980;2023-05-15T00:05:42;6.33;;;3.80;;
50821;SDS011;36794;51.212;6.980;2023-05-15T00:08:08;8.03;;;3.93;;
50821;SDS011;36794;51.212;6.980;2023-05-15T00:10:34;6.77;;;3.77;;
50821;SDS011;36794;51.212;6.980;2023-05-15T00:13:00;10.67;;;3.80;;
50821;SDS011;36794;51.212;6.980;2023-05-15T00:15:26;8.13;;;3.63;;
50821;SDS011;36794;51.212;6.980;2023-05-15T00:17:52;7.27;;;4.30;;
50821;SDS011;36794;51.212;6.980;2023-05-15T00:20:18;8.70;;;4.17;;
50821;SDS011;36794;51.212;6.980;2023-05-15T00:22:44;6.47;;;3.50;;
50821;SDS011;36794;51.212;6.980;2023-05-15T00:25:10;5.57;;;3.50;;
50821;SDS011;36794;51.212;6.980;2023-05-15T00:27:36;7.57;;;4.13;;
50821;SDS011;36794;51.212;6.980;2023-05-15T00:30:02;7.10;;;3.77;;
50821;SDS011;36794;51.212;6.980;2023-05-15T00:32:28;11.70;;;5.13;;
50821;SDS011;36794;51.212;6.980;2023-05-15T00:34:53;7.77;;;4.37;;
50821;SDS011;36794;51.212;6.980;2023-05-15T00:37:19;7.97;;;4.10;;
50821;SDS011;36794;51.212;6.980;2023-05-15T00:39:45;6.67;;;3.87;;
50821;SDS011;36794;51.212;6.980;2023-05-15T00:42:11;5.07;;;3.53;;
50821;SDS011;36794;51.212;6.980;2023-05-15T00:44:38;6.53;;;3.70;;
50821;SDS011;36794;51.212;6.980;2023-05-15T00:47:05;8.60;;;4.10;;
50821;SDS011;36794;51.212;6.980;2023-05-15T00:49:31;5.03;;;3.87;;
50821;SDS011;36794;51.212;6.980;2023-05-15T00:52:00;9.70;;;4.70;;
50821;SDS011;36794;51.212;6.980;2023-05-15T00:54:27;9.73;;;3.60;;
50821;SDS011;36794;51.212;6.980;2023-05-15T00:56:55;11.40;;;4.17;;
50821;SDS011;36794;51.212;6.980;2023-05-15T00:59:22;10.63;;;4.00;;
50821;SDS011;36794;51.212;6.980;2023-05-15T01:01:49;15.60;;;4.27;;
50821;SDS011;36794;51.212;6.980;2023-05-15T01:04:15;9.80;;;4.00;;
50821;SDS011;36794;51.212;6.980;2023-05-15T01:06:41;6.47;;;3.97;;
50821;SDS011;36794;51.212;6.980;2023-05-15T01:09:07;8.23;;;4.00;;
50821;SDS011;36794;51.212;6.980;2023-05-15T01:11:34;5.87;;;3.77;;
50821;SDS011;36794;51.212;6.980;2023-05-15T01:14:03;6.17;;;3.80;;
50821;SDS011;36794;51.212;6.980;2023-05-15T01:16:29;8.83;;;4.13;;
50821;SDS011;36794;51.212;6.980;2023-05-15T01:18:56;7.10;;;3.83;;
50821;SDS011;36794;51.212;6.980;2023-05-15T01:24:09;8.67;;;4.50;;
50821;SDS011;36794;51.212;6.980;2023-05-15T01:29:04;6.80;;;4.40;;
50821;SDS011;36794;51.212;6.980;2023-05-15T01:31:31;9.90;;;4.27;;
50821;SDS011;36794;51.212;6.980;2023-05-15T01:33:59;7.13;;;4.80;;
50821;SDS011;36794;51.212;6.980;2023-05-15T01:36:37;6.77;;;4.33;;
50821;SDS011;36794;51.212;6.980;2023-05-15T01:39:03;5.10;;;4.37;;
50821;SDS011;36794;51.212;6.980;2023-05-15T01:41:40;4.37;;;3.87;;
50821;SDS011;36794;51.212;6.980;2023-05-15T01:44:09;5.70;;;4.23;;
50821;SDS011;36794;51.212;6.980;2023-05-15T01:46:37;6.37;;;4.57;;
50821;SDS011;36794;51.212;6.980;2023-05-15T01:49:03;5.83;;;4.53;;
50821;SDS011;36794;51.212;6.980;2023-05-15T01:51:32;8.60;;;4.37;;
50821;SDS011;36794;51.212;6.980;2023-05-15T01:53:59;10.03;;;4.50;;
50821;SDS011;36794;51.212;6.980;2023-05-15T01:56:25;5.80;;;4.67;;
50821;SDS011;36794;51.212;6.980;2023-05-15T01:58:52;5.53;;;4.57;;
50821;SDS011;36794;51.212;6.980;2023-05-15T02:01:18;8.27;;;4.73;;
50821;SDS011;36794;51.212;6.980;2023-05-15T02:03:44;13.23;;;4.23;;
50821;SDS011;36794;51.212;6.980;2023-05-15T02:06:11;8.87;;;4.50;;
50821;SDS011;36794;51.212;6.980;2023-05-15T02:08:37;8.00;;;3.90;;
50821;SDS011;36794;51.212;6.980;2023-05-15T02:11:04;8.20;;;4.70;;
50821;SDS011;36794;51.212;6.980;2023-05-15T02:13:30;8.57;;;4.07;;
50821;SDS011;36794;51.212;6.980;2023-05-15T02:15:56;6.73;;;4.13;;
50821;SDS011;36794;51.212;6.980;2023-05-15T02:18:22;4.53;;;3.93;;
50821;SDS011;36794;51.212;6.980;2023-05-15T02:20:48;7.73;;;4.40;;
50821;SDS011;36794;51.212;6.980;2023-05-15T02:23:15;7.90;;;4.30;;
50821;SDS011;36794;51.212;6.980;2023-05-15T02:25:44;11.97;;;6.67;;
50821;SDS011;36794;51.212;6.980;2023-05-15T02:28:14;10.63;;;4.80;;
50821;SDS011;36794;51.212;6.980;2023-05-15T02:30:42;7.87;;;4.47;;
50821;SDS011;36794;51.212;6.980;2023-05-15T02:33:18;7.87;;;5.13;;
50821;SDS011;36794;51.212;6.980;2023-05-15T02:35:49;8.23;;;4.87;;
50821;SDS011;36794;51.212;6.980;2023-05-15T02:38:18;6.50;;;5.80;;
50821;SDS011;36794;51.212;6.980;2023-05-15T02:40:44;16.23;;;10.23;;
50821;SDS011;36794;51.212;6.980;2023-05-15T02:43:12;22.77;;;13.43;;
50821;SDS011;36794;51.212;6.980;2023-05-15T02:45:38;35.10;;;16.83;;
50821;SDS011;36794;51.212;6.980;2023-05-15T02:48:05;71.43;;;28.80;;
50821;SDS011;36794;51.212;6.980;2023-05-15T02:50:31;85.13;;;33.80;;
50821;SDS011;36794;51.212;6.980;2023-05-15T02:53:01;88.60;;;35.00;;
50821;SDS011;36794;51.212;6.980;2023-05-15T02:55:27;110.43;;;40.00;;
50821;SDS011;36794;51.212;6.980;2023-05-15T02:57:53;109.93;;;41.17;;
50821;SDS011;36794;51.212;6.980;2023-05-15T03:00:19;108.47;;;44.63;;
50821;SDS011;36794;51.212;6.980;2023-05-15T03:02:45;106.37;;;43.73;;
50821;SDS011;36794;51.212;6.980;2023-05-15T03:05:11;106.73;;;43.83;;
50821;SDS011;36794;51.212;6.980;2023-05-15T03:07:37;114.50;;;46.03;;
50821;SDS011;36794;51.212;6.980;2023-05-15T03:10:05;104.43;;;42.37;;
50821;SDS011;36794;51.212;6.980;2023-05-15T03:12:31;98.67;;;42.80;;
50821;SDS011;36794;51.212;6.980;2023-05-15T03:14:57;84.80;;;40.80;;
50821;SDS011;36794;51.212;6.980;2023-05-15T03:17:23;94.47;;;41.17;;
50821;SDS011;36794;51.212;6.980;2023-05-15T03:19:49;81.03;;;40.80;;
50821;SDS011;36794;51.212;6.980;2023-05-15T03:22:15;81.83;;;38.33;;
50821;SDS011;36794;51.212;6.980;2023-05-15T03:24:41;88.53;;;40.80;;
50821;SDS011;36794;51.212;6.980;2023-05-15T03:27:07;84.17;;;39.17;;
50821;SDS011;36794;51.212;6.980;2023-05-15T03:29:33;91.67;;;39.87;;
50821;SDS011;36794;51.212;6.980;2023-05-15T03:31:59;84.43;;;39.13;;
50821;SDS011;36794;51.212;6.980;2023-05-15T03:34:25;87.93;;;41.53;;
50821;SDS011;36794;51.212;6.980;2023-05-15T03:36:51;89.20;;;42.97;;
50821;SDS011;36794;51.212;6.980;2023-05-15T03:39:17;81.73;;;39.20;;
50821;SDS011;36794;51.212;6.980;2023-05-15T03:41:43;80.27;;;38.97;;
50821;SDS011;36794;51.212;6.980;2023-05-15T03:44:08;72.17;;;38.60;;
50821;SDS011;36794;51.212;6.980;2023-05-15T03:46:34;78.80;;;40.37;;
50821;SDS011;36794;51.212;6.980;2023-05-15T03:49:00;75.27;;;38.13;;
50821;SDS011;36794;51.212;6.980;2023-05-15T03:51:26;73.57;;;38.53;;
50821;SDS011;36794;51.212;6.980;2023-05-15T03:53:53;74.13;;;40.67;;
50821;SDS011;36794;51.212;6.980;2023-05-15T03:56:19;79.37;;;43.07;;
50821;SDS011;36794;51.212;6.980;2023-05-15T03:58:45;89.43;;;46.63;;
50821;SDS011;36794;51.212;6.980;2023-05-15T04:01:11;94.63;;;49.73;;
50821;SDS011;36794;51.212;6.980;2023-05-15T04:03:37;90.57;;;47.77;;
50821;SDS011;36794;51.212;6.980;2023-05-15T04:06:03;94.87;;;48.13;;
50821;SDS011;36794;51.212;6.980;2023-05-15T04:08:29;95.37;;;47.53;;
50821;SDS011;36794;51.212;6.980;2023-05-15T04:10:55;87.07;;;44.97;;
50821;SDS011;36794;51.212;6.980;2023-05-15T04:13:21;97.37;;;47.00;;
50821;SDS011;36794;51.212;6.980;2023-05-15T04:15:47;106.07;;;49.23;;
50821;SDS011;36794;51.212;6.980;2023-05-15T04:18:13;106.50;;;48.93;;
50821;SDS011;36794;51.212;6.980;2023-05-15T04:20:39;114.43;;;52.00;;
50821;SDS011;36794;51.212;6.980;2023-05-15T04:23:05;116.33;;;51.67;;
50821;SDS011;36794;51.212;6.980;2023-05-15T04:25:31;112.47;;;53.87;;
50821;SDS011;36794;51.212;6.980;2023-05-15T04:27:57;111.67;;;52.17;;
50821;SDS011;36794;51.212;6.980;2023-05-15T04:30:23;115.33;;;52.93;;
50821;SDS011;36794;51.212;6.980;2023-05-15T04:32:48;109.10;;;50.47;;
50821;SDS011;36794;51.212;6.980;2023-05-15T04:35:15;109.93;;;51.40;;
50821;SDS011;36794;51.212;6.980;2023-05-15T04:37:42;122.23;;;52.03;;
50821;SDS011;36794;51.212;6.980;2023-05-15T04:40:09;115.07;;;52.37;;
50821;SDS011;36794;51.212;6.980;2023-05-15T04:42:36;116.50;;;53.57;;
50821;SDS011;36794;51.212;6.980;2023-05-15T04:45:02;118.90;;;53.83;;
50821;SDS011;36794;51.212;6.980;2023-05-15T04:47:29;120.30;;;53.50;;
50821;SDS011;36794;51.212;6.980;2023-05-15T04:49:55;117.13;;;54.10;;
50821;SDS011;36794;51.212;6.980;2023-05-15T04:52:21;124.40;;;56.73;;
50821;SDS011;36794;51.212;6.980;2023-05-15T04:54:47;115.63;;;54.73;;
50821;SDS011;36794;51.212;6.980;2023-05-15T04:57:15;117.10;;;54.20;;
50821;SDS011;36794;51.212;6.980;2023-05-15T04:59:41;110.50;;;53.00;;
50821;SDS011;36794;51.212;6.980;2023-05-15T05:02:08;114.17;;;56.50;;
50821;SDS011;36794;51.212;6.980;2023-05-15T05:04:34;120.57;;;55.60;;
50821;SDS011;36794;51.212;6.980;2023-05-15T05:07:00;119.50;;;56.43;;
50821;SDS011;36794;51.212;6.980;2023-05-15T05:09:29;117.33;;;54.50;;
50821;SDS011;36794;51.212;6.980;2023-05-15T05:11:57;118.83;;;58.93;;
50821;SDS011;36794;51.212;6.980;2023-05-15T05:14:23;121.07;;;56.93;;
50821;SDS011;36794;51.212;6.980;2023-05-15T05:16:49;130.83;;;63.53;;
50821;SDS011;36794;51.212;6.980;2023-05-15T05:19:15;130.50;;;62.57;;
50821;SDS011;36794;51.212;6.980;2023-05-15T05:21:41;138.63;;;63.47;;
50821;SDS011;36794;51.212;6.980;2023-05-15T05:24:07;131.77;;;66.63;;
50821;SDS011;36794;51.212;6.980;2023-05-15T05:26:33;134.13;;;66.97;;
50821;SDS011;36794;51.212;6.980;2023-05-15T05:28:59;122.43;;;65.97;;
50821;SDS011;36794;51.212;6.980;2023-05-15T05:31:25;133.00;;;67.10;;
50821;SDS011;36794;51.212;6.980;2023-05-15T05:33:51;131.97;;;66.93;;
50821;SDS011;36794;51.212;6.980;2023-05-15T05:36:17;139.07;;;68.83;;
50821;SDS011;36794;51.212;6.980;2023-05-15T05:38:43;125.87;;;65.13;;
50821;SDS011;36794;51.212;6.980;2023-05-15T05:41:09;133.70;;;68.40;;
50821;SDS011;36794;51.212;6.980;2023-05-15T05:43:35;127.63;;;63.70;;
50821;SDS011;36794;51.212;6.980;2023-05-15T05:46:01;131.97;;;62.77;;
50821;SDS011;36794;51.212;6.980;2023-05-15T05:48:27;124.60;;;62.10;;
50821;SDS011;36794;51.212;6.980;2023-05-15T05:50:54;125.43;;;62.53;;
50821;SDS011;36794;51.212;6.980;2023-05-15T05:53:20;118.97;;;60.17;;
50821;SDS011;36794;51.212;6.980;2023-05-15T05:55:46;113.63;;;59.47;;
50821;SDS011;36794;51.212;6.980;2023-05-15T05:58:12;109.37;;;56.20;;
50821;SDS011;36794;51.212;6.980;2023-05-15T06:00:39;108.77;;;55.00;;
50821;SDS011;36794;51.212;6.980;2023-05-15T06:03:05;100.97;;;51.90;;
50821;SDS011;36794;51.212;6.980;2023-05-15T06:05:31;96.90;;;52.13;;
50821;SDS011;36794;51.212;6.980;2023-05-15T06:07:58;104.80;;;50.57;;
50821;SDS011;36794;51.212;6.980;2023-05-15T06:10:25;86.07;;;48.53;;
50821;SDS011;36794;51.212;6.980;2023-05-15T06:12:51;92.43;;;49.47;;
50821;SDS011;36794;51.212;6.980;2023-05-15T06:15:17;84.77;;;47.83;;
50821;SDS011;36794;51.212;6.980;2023-05-15T06:17:43;86.33;;;47.20;;
50821;SDS011;36794;51.212;6.980;2023-05-15T06:20:09;79.50;;;45.67;;
50821;SDS011;36794;51.212;6.980;2023-05-15T06:22:36;86.93;;;44.57;;
50821;SDS011;36794;51.212;6.980;2023-05-15T06:25:03;68.57;;;40.17;;
50821;SDS011;36794;51.212;6.980;2023-05-15T06:27:29;60.20;;;37.03;;
50821;SDS011;36794;51.212;6.980;2023-05-15T06:29:55;53.20;;;34.40;;
50821;SDS011;36794;51.212;6.980;2023-05-15T06:32:21;49.77;;;33.00;;
50821;SDS011;36794;51.212;6.980;2023-05-15T06:34:47;47.67;;;32.03;;
50821;SDS011;36794;51.212;6.980;2023-05-15T06:37:13;56.00;;;32.87;;
50821;SDS011;36794;51.212;6.980;2023-05-15T06:39:39;45.97;;;30.67;;
50821;SDS011;36794;51.212;6.980;2023-05-15T06:42:05;51.83;;;33.33;;
50821;SDS011;36794;51.212;6.980;2023-05-15T06:44:31;52.60;;;32.73;;
50821;SDS011;36794;51.212;6.980;2023-05-15T06:46:57;46.33;;;32.93;;
50821;SDS011;36794;51.212;6.980;2023-05-15T06:49:24;56.70;;;32.87;;
50821;SDS011;36794;51.212;6.980;2023-05-15T06:51:50;47.67;;;32.73;;
50821;SDS011;36794;51.212;6.980;2023-05-15T06:54:16;48.10;;;32.73;;
50821;SDS011;36794;51.212;6.980;2023-05-15T06:56:42;47.17;;;30.50;;
50821;SDS011;36794;51.212;6.980;2023-05-15T06:59:08;48.77;;;32.53;;
50821;SDS011;36794;51.212;6.980;2023-05-15T07:01:34;50.87;;;35.17;;
50821;SDS011;36794;51.212;6.980;2023-05-15T07:04:00;54.27;;;36.87;;
50821;SDS011;36794;51.212;6.980;2023-05-15T07:06:27;59.13;;;36.57;;
50821;SDS011;36794;51.212;6.980;2023-05-15T07:08:55;54.07;;;35.30;;
50821;SDS011;36794;51.212;6.980;2023-05-15T07:11:21;51.23;;;35.97;;
50821;SDS011;36794;51.212;6.980;2023-05-15T07:13:47;53.80;;;36.10;;
50821;SDS011;36794;51.212;6.980;2023-05-15T07:16:13;56.27;;;36.53;;
50821;SDS011;36794;51.212;6.980;2023-05-15T07:18:39;57.00;;;38.37;;
50821;SDS011;36794;51.212;6.980;2023-05-15T07:21:04;54.23;;;35.10;;
50821;SDS011;36794;51.212;6.980;2023-05-15T07:23:30;51.60;;;38.67;;
50821;SDS011;36794;51.212;6.980;2023-05-15T07:25:56;51.20;;;38.67;;
50821;SDS011;36794;51.212;6.980;2023-05-15T07:28:22;56.30;;;39.73;;
50821;SDS011;36794;51.212;6.980;2023-05-15T07:30:48;56.90;;;39.93;;
50821;SDS011;36794;51.212;6.980;2023-05-15T07:33:15;62.97;;;43.90;;
50821;SDS011;36794;51.212;6.980;2023-05-15T07:35:41;65.37;;;43.87;;
50821;SDS011;36794;51.212;6.980;2023-05-15T07:38:07;61.80;;;44.50;;
50821;SDS011;36794;51.212;6.980;2023-05-15T07:40:33;68.83;;;44.93;;
50821;SDS011;36794;51.212;6.980;2023-05-15T07:42:59;70.00;;;47.40;;
50821;SDS011;36794;51.212;6.980;2023-05-15T07:45:25;63.07;;;46.00;;
50821;SDS011;36794;51.212;6.980;2023-05-15T07:47:51;67.93;;;47.67;;
50821;SDS011;36794;51.212;6.980;2023-05-15T07:50:17;63.27;;;45.83;;
50821;SDS011;36794;51.212;6.980;2023-05-15T07:52:43;74.33;;;48.97;;
50821;SDS011;36794;51.212;6.980;2023-05-15T07:55:09;73.30;;;48.20;;
50821;SDS011;36794;51.212;6.980;2023-05-15T07:57:35;69.73;;;47.63;;
50821;SDS011;36794;51.212;6.980;2023-05-15T08:00:01;69.40;;;49.53;;
50821;SDS011;36794;51.212;6.980;2023-05-15T08:02:35;68.93;;;49.83;;
50821;SDS011;36794;51.212;6.980;2023-05-15T08:05:01;67.77;;;45.80;;
50821;SDS011;36794;51.212;6.980;2023-05-15T08:07:29;62.50;;;43.80;;
50821;SDS011;36794;51.212;6.980;2023-05-15T08:09:56;54.67;;;40.67;;
50821;SDS011;36794;51.212;6.980;2023-05-15T08:12:22;59.07;;;40.33;;
50821;SDS011;36794;51.212;6.980;2023-05-15T08:14:49;53.57;;;36.43;;
50821;SDS011;36794;51.212;6.980;2023-05-15T08:17:15;46.30;;;33.30;;
50821;SDS011;36794;51.212;6.980;2023-05-15T08:19:41;40.17;;;30.67;;
50821;SDS011;36794;51.212;6.980;2023-05-15T08:22:07;43.17;;;32.55;;
50821;SDS011;36794;51.212;6.980;2023-05-15T08:24:33;42.85;;;31.52;;
50821;SDS011;36794;51.212;6.980;2023-05-15T08:26:59;49.42;;;36.88;;
50821;SDS011;36794;51.212;6.980;2023-05-15T08:29:25;48.45;;;38.08;;
50821;SDS011;36794;51.212;6.980;2023-05-15T08:31:51;48.78;;;37.22;;
50821;SDS011;36794;51.212;6.980;2023-05-15T08:34:17;46.28;;;37.08;;
50821;SDS011;36794;51.212;6.980;2023-05-15T08:36:43;47.00;;;33.78;;
50821;SDS011;36794;51.212;6.980;2023-05-15T08:39:09;42.38;;;32.85;;
50821;SDS011;36794;51.212;6.980;2023-05-15T08:44:31;42.40;;;29.25;;
50821;SDS011;36794;51.212;6.980;2023-05-15T08:46:57;34.85;;;28.40;;
50821;SDS011;36794;51.212;6.980;2023-05-15T08:51:59;36.63;;;27.88;;
50821;SDS011;36794;51.212;6.980;2023-05-15T08:54:25;36.13;;;26.25;;
50821;SDS011;36794;51.212;6.980;2023-05-15T08:56:52;36.30;;;26.35;;
50821;SDS011;36794;51.212;6.980;2023-05-15T08:59:18;33.13;;;23.73;;
50821;SDS011;36794;51.212;6.980;2023-05-15T09:01:44;28.70;;;22.58;;
50821;SDS011;36794;51.212;6.980;2023-05-15T09:04:10;31.83;;;22.13;;
50821;SDS011;36794;51.212;6.980;2023-05-15T09:06:36;30.20;;;22.50;;
50821;SDS011;36794;51.212;6.980;2023-05-15T09:09:02;30.60;;;21.38;;
50821;SDS011;36794;51.212;6.980;2023-05-15T09:11:29;31.10;;;21.48;;
50821;SDS011;36794;51.212;6.980;2023-05-15T09:13:59;29.20;;;20.48;;
50821;SDS011;36794;51.212;6.980;2023-05-15T09:16:26;30.95;;;20.95;;
50821;SDS011;36794;51.212;6.980;2023-05-15T09:18:52;28.55;;;21.15;;
50821;SDS011;36794;51.212;6.980;2023-05-15T09:21:25;26.48;;;18.67;;
50821;SDS011;36794;51.212;6.980;2023-05-15T09:23:51;27.52;;;21.20;;
50821;SDS011;36794;51.212;6.980;2023-05-15T09:26:17;33.05;;;19.38;;
50821;SDS011;36794;51.212;6.980;2023-05-15T09:28:43;27.77;;;19.30;;
50821;SDS011;36794;51.212;6.980;2023-05-15T09:31:09;28.05;;;19.05;;
50821;SDS011;36794;51.212;6.980;2023-05-15T09:33:36;24.10;;;18.60;;
50821;SDS011;36794;51.212;6.980;2023-05-15T09:36:02;26.75;;;17.63;;
50821;SDS011;36794;51.212;6.980;2023-05-15T09:38:31;25.13;;;18.00;;
50821;SDS011;36794;51.212;6.980;2023-05-15T09:41:01;25.10;;;15.75;;
50821;SDS011;36794;51.212;6.980;2023-05-15T09:43:28;28.25;;;16.08;;
50821;SDS011;36794;51.212;6.980;2023-05-15T09:45:54;16.90;;;14.00;;
50821;SDS011;36794;51.212;6.980;2023-05-15T09:48:21;25.75;;;13.73;;
50821;SDS011;36794;51.212;6.980;2023-05-15T09:50:47;20.92;;;14.20;;
50821;SDS011;36794;51.212;6.980;2023-05-15T09:53:12;15.82;;;12.50;;
50821;SDS011;36794;51.212;6.980;2023-05-15T09:55:40;25.60;;;14.02;;
50821;SDS011;36794;51.212;6.980;2023-05-15T10:00:33;17.58;;;12.25;;
50821;SDS011;36794;51.212;6.980;2023-05-15T10:03:06;17.33;;;12.70;;
50821;SDS011;36794;51.212;6.980;2023-05-15T10:05:33;16.38;;;11.77;;
50821;SDS011;36794;51.212;6.980;2023-05-15T10:07:59;16.40;;;10.70;;
50821;SDS011;36794;51.212;6.980;2023-05-15T10:10:25;18.70;;;10.95;;
50821;SDS011;36794;51.212;6.980;2023-05-15T10:12:52;16.27;;;10.38;;
50821;SDS011;36794;51.212;6.980;2023-05-15T10:15:20;15.98;;;11.27;;
50821;SDS011;36794;51.212;6.980;2023-05-15T10:17:46;13.70;;;10.57;;
50821;SDS011;36794;51.212;6.980;2023-05-15T10:20:13;12.50;;;10.00;;
50821;SDS011;36794;51.212;6.980;2023-05-15T10:22:40;17.77;;;10.48;;
50821;SDS011;36794;51.212;6.980;2023-05-15T10:27:54;13.10;;;9.95;;
50821;SDS011;36794;51.212;6.980;2023-05-15T10:30:20;13.73;;;9.48;;
50821;SDS011;36794;51.212;6.980;2023-05-15T10:32:47;16.63;;;9.20;;
50821;SDS011;36794;51.212;6.980;2023-05-15T10:35:13;13.00;;;8.80;;
50821;SDS011;36794;51.212;6.980;2023-05-15T10:37:40;12.07;;;8.65;;
50821;SDS011;36794;51.212;6.980;2023-05-15T10:40:10;16.17;;;9.98;;
50821;SDS011;36794;51.212;6.980;2023-05-15T10:42:37;13.63;;;9.65;;
50821;SDS011;36794;51.212;6.980;2023-05-15T10:45:06;21.15;;;10.77;;
50821;SDS011;36794;51.212;6.980;2023-05-15T10:47:32;15.73;;;9.13;;
50821;SDS011;36794;51.212;6.980;2023-05-15T10:49:58;15.05;;;9.40;;
50821;SDS011;36794;51.212;6.980;2023-05-15T10:52:24;19.33;;;9.80;;
50821;SDS011;36794;51.212;6.980;2023-05-15T10:54:53;15.27;;;9.23;;
50821;SDS011;36794;51.212;6.980;2023-05-15T10:57:20;13.50;;;9.70;;
50821;SDS011;36794;51.212;6.980;2023-05-15T10:59:46;16.27;;;9.63;;
50821;SDS011;36794;51.212;6.980;2023-05-15T11:05:00;15.80;;;7.63;;
50821;SDS011;36794;51.212;6.980;2023-05-15T11:07:27;13.23;;;7.55;;
50821;SDS011;36794;51.212;6.980;2023-05-15T11:09:54;11.38;;;7.80;;
50821;SDS011;36794;51.212;6.980;2023-05-15T11:12:20;15.43;;;7.93;;
50821;SDS011;36794;51.212;6.980;2023-05-15T11:17:24;12.55;;;6.65;;
50821;SDS011;36794;51.212;6.980;2023-05-15T11:22:18;14.93;;;7.15;;
50821;SDS011;36794;51.212;6.980;2023-05-15T11:24:56;12.95;;;7.88;;
50821;SDS011;36794;51.212;6.980;2023-05-15T11:27:23;16.13;;;9.43;;
50821;SDS011;36794;51.212;6.980;2023-05-15T11:35:59;12.60;;;7.53;;
50821;SDS011;36794;51.212;6.980;2023-05-15T11:38:01;14.55;;;6.95;;
50821;SDS011;36794;51.212;6.980;2023-05-15T11:40:28;9.55;;;6.90;;
50821;SDS011;36794;51.212;6.980;2023-05-15T11:42:59;16.25;;;7.07;;
50821;SDS011;36794;51.212;6.980;2023-05-15T11:45:26;14.73;;;6.97;;
50821;SDS011;36794;51.212;6.980;2023-05-15T11:47:52;12.57;;;7.97;;
50821;SDS011;36794;51.212;6.980;2023-05-15T11:50:18;13.27;;;8.15;;
50821;SDS011;36794;51.212;6.980;2023-05-15T11:52:45;11.75;;;7.10;;
50821;SDS011;36794;51.212;6.980;2023-05-15T11:55:11;10.18;;;7.40;;
50821;SDS011;36794;51.212;6.980;2023-05-15T11:57:37;9.35;;;6.75;;
50821;SDS011;36794;51.212;6.980;2023-05-15T12:00:04;11.68;;;6.82;;
50821;SDS011;36794;51.212;6.980;2023-05-15T12:02:30;19.52;;;8.15;;
50821;SDS011;36794;51.212;6.980;2023-05-15T12:04:56;11.70;;;6.25;;
50821;SDS011;36794;51.212;6.980;2023-05-15T12:07:22;8.30;;;5.50;;
50821;SDS011;36794;51.212;6.980;2023-05-15T12:09:49;9.57;;;6.13;;
50821;SDS011;36794;51.212;6.980;2023-05-15T12:12:16;11.13;;;6.13;;
50821;SDS011;36794;51.212;6.980;2023-05-15T12:14:42;11.18;;;6.40;;
50821;SDS011;36794;51.212;6.980;2023-05-15T12:17:08;11.15;;;6.40;;
50821;SDS011;36794;51.212;6.980;2023-05-15T12:19:34;13.57;;;7.18;;
50821;SDS011;36794;51.212;6.980;2023-05-15T12:22:01;13.98;;;7.05;;
50821;SDS011;36794;51.212;6.980;2023-05-15T12:24:28;9.95;;;7.18;;
50821;SDS011;36794;51.212;6.980;2023-05-15T12:26:54;16.23;;;6.60;;
50821;SDS011;36794;51.212;6.980;2023-05-15T12:29:20;10.50;;;6.78;;
50821;SDS011;36794;51.212;6.980;2023-05-15T12:31:47;14.00;;;6.32;;
50821;SDS011;36794;51.212;6.980;2023-05-15T12:34:17;11.00;;;6.60;;
50821;SDS011;36794;51.212;6.980;2023-05-15T12:36:43;12.95;;;7.63;;
50821;SDS011;36794;51.212;6.980;2023-05-15T12:39:09;12.75;;;7.45;;
50821;SDS011;36794;51.212;6.980;2023-05-15T12:41:36;14.88;;;8.52;;
50821;SDS011;36794;51.212;6.980;2023-05-15T12:44:03;11.63;;;7.22;;
50821;SDS011;36794;51.212;6.980;2023-05-15T12:46:29;9.98;;;7.85;;
50821;SDS011;36794;51.212;6.980;2023-05-15T12:48:59;10.18;;;7.20;;
50821;SDS011;36794;51.212;6.980;2023-05-15T12:51:25;10.52;;;7.20;;
50821;SDS011;36794;51.212;6.980;2023-05-15T12:53:53;7.75;;;6.10;;
50821;SDS011;36794;51.212;6.980;2023-05-15T12:56:22;13.95;;;7.57;;
50821;SDS011;36794;51.212;6.980;2023-05-15T12:58:48;11.38;;;7.22;;
50821;SDS011;36794;51.212;6.980;2023-05-15T13:01:14;12.00;;;8.95;;
50821;SDS011;36794;51.212;6.980;2023-05-15T13:03:41;11.57;;;7.72;;
50821;SDS011;36794;51.212;6.980;2023-05-15T13:06:08;11.52;;;8.07;;
50821;SDS011;36794;51.212;6.980;2023-05-15T13:08:38;11.48;;;7.18;;
50821;SDS011;36794;51.212;6.980;2023-05-15T13:11:04;10.15;;;6.55;;
50821;SDS011;36794;51.212;6.980;2023-05-15T13:13:43;10.75;;;6.68;;
50821;SDS011;36794;51.212;6.980;2023-05-15T13:16:16;16.60;;;7.22;;
50821;SDS011;36794;51.212;6.980;2023-05-15T13:18:42;13.38;;;6.47;;
50821;SDS011;36794;51.212;6.980;2023-05-15T13:21:08;10.55;;;6.28;;
50821;SDS011;36794;51.212;6.980;2023-05-15T13:23:34;12.57;;;5.55;;
50821;SDS011;36794;51.212;6.980;2023-05-15T13:26:00;10.50;;;5.88;;
50821;SDS011;36794;51.212;6.980;2023-05-15T13:28:26;9.90;;;6.20;;
50821;SDS011;36794;51.212;6.980;2023-05-15T13:30:52;15.63;;;6.65;;
50821;SDS011;36794;51.212;6.980;2023-05-15T13:33:18;10.25;;;6.45;;
50821;SDS011;36794;51.212;6.980;2023-05-15T13:35:44;9.73;;;6.88;;
50821;SDS011;36794;51.212;6.980;2023-05-15T13:38:10;13.88;;;9.30;;
50821;SDS011;36794;51.212;6.980;2023-05-15T13:40:36;15.13;;;7.15;;
50821;SDS011;36794;51.212;6.980;2023-05-15T13:43:02;12.82;;;7.65;;
50821;SDS011;36794;51.212;6.980;2023-05-15T13:45:30;11.55;;;7.75;;
50821;SDS011;36794;51.212;6.980;2023-05-15T13:47:56;12.40;;;7.85;;
50821;SDS011;36794;51.212;6.980;2023-05-15T13:50:22;12.00;;;8.00;;
50821;SDS011;36794;51.212;6.980;2023-05-15T13:52:48;14.07;;;7.75;;
50821;SDS011;36794;51.212;6.980;2023-05-15T13:55:14;9.55;;;6.10;;
50821;SDS011;36794;51.212;6.980;2023-05-15T13:57:40;11.88;;;5.28;;
50821;SDS011;36794;51.212;6.980;2023-05-15T14:00:07;8.73;;;4.65;;
50821;SDS011;36794;51.212;6.980;2023-05-15T14:02:36;9.65;;;3.78;;
50821;SDS011;36794;51.212;6.980;2023-05-15T14:05:02;5.88;;;3.65;;
50821;SDS011;36794;51.212;6.980;2023-05-15T14:07:29;6.18;;;4.25;;
50821;SDS011;36794;51.212;6.980;2023-05-15T14:09:55;8.93;;;5.70;;
50821;SDS011;36794;51.212;6.980;2023-05-15T14:12:21;13.05;;;8.38;;
50821;SDS011;36794;51.212;6.980;2023-05-15T14:14:47;17.25;;;10.95;;
50821;SDS011;36794;51.212;6.980;2023-05-15T14:17:14;17.85;;;12.35;;
50821;SDS011;36794;51.212;6.980;2023-05-15T14:19:40;16.85;;;11.77;;
50821;SDS011;36794;51.212;6.980;2023-05-15T14:22:06;16.60;;;12.27;;
50821;SDS011;36794;51.212;6.980;2023-05-15T14:24:32;17.88;;;13.15;;
50821;SDS011;36794;51.212;6.980;2023-05-15T14:26:59;15.95;;;13.27;;
50821;SDS011;36794;51.212;6.980;2023-05-15T14:29:25;19.05;;;12.75;;
50821;SDS011;36794;51.212;6.980;2023-05-15T14:31:51;19.35;;;12.95;;
50821;SDS011;36794;51.212;6.980;2023-05-15T14:34:17;18.65;;;11.88;;
50821;SDS011;36794;51.212;6.980;2023-05-15T14:36:43;19.70;;;12.52;;
50821;SDS011;36794;51.212;6.980;2023-05-15T14:39:15;18.73;;;12.68;;
50821;SDS011;36794;51.212;6.980;2023-05-15T14:41:41;16.95;;;11.73;;
50821;SDS011;36794;51.212;6.980;2023-05-15T14:44:08;16.77;;;12.02;;
50821;SDS011;36794;51.212;6.980;2023-05-15T14:46:34;16.88;;;12.23;;
50821;SDS011;36794;51.212;6.980;2023-05-15T14:49:03;21.67;;;13.52;;
50821;SDS011;36794;51.212;6.980;2023-05-15T14:51:29;20.20;;;13.35;;
50821;SDS011;36794;51.212;6.980;2023-05-15T14:53:55;16.23;;;12.52;;